sensor_id;sensor_type;location;lat;lon;timestamp;pressure;altitude;pressure_sealevel;temperature;humidity
35224;BME280;21367;51.930;8.112;2024-02-15T00:00:25;99923.69;;;11.08;100.00
35224;BME280;21367;51.930;8.112;2024-02-15T00:05:29;99941.44;;;10.99;100.00
35224;BME280;21367;51.930;8.112;2024-02-15T00:10:35;99935.63;;;11.06;100.00
35224;BME280;21367;51.930;8.112;2024-02-15T00:15:43;99934.31;;;11.22;100.00
35224;BME280;21367;51.930;8.112;2024-02-15T00:20:50;99937.16;;;10.99;100.00
35224;BME280;21367;51.930;8.112;2024-02-15T00:26:03;99944.78;;;10.96;100.00
35224;BME280;21367;51.930;8.112;2024-02-15T00:31:09;99932.25;;;11.08;100.00
35224;BME280;21367;51.930;8.112;2024-02-15T00:36:13;99925.91;;;10.96;100.00
35224;BME280;21367;51.930;8.112;2024-02-15T00:41:17;99917.69;;;11.09;100.00
35224;BME280;21367;51.930;8.112;2024-02-15T00:46:33;99935.69;;;11.07;100.00
35224;BME280;21367;51.930;8.112;2024-02-15T00:51:40;99935.53;;;11.03;100.00
35224;BME280;21367;51.930;8.112;2024-02-15T00:56:50;99940.91;;;11.10;100.00
35224;BME280;21367;51.930;8.112;2024-02-15T01:01:58;99949.19;;;11.00;100.00
35224;BME280;21367;51.930;8.112;2024-02-15T01:07:09;99936.78;;;11.17;100.00
35224;BME280;21367;51.930;8.112;2024-02-15T01:12:16;99942.75;;;10.84;100.00
35224;BME280;21367;51.930;8.112;2024-02-15T01:17:24;99919.63;;;10.84;100.00
35224;BME280;21367;51.930;8.112;2024-02-15T01:22:27;99903.63;;;10.96;100.00
35224;BME280;21367;51.930;8.112;2024-02-15T01:27:41;99889.34;;;11.06;100.00
35224;BME280;21367;51.930;8.112;2024-02-15T01:32:47;99890.69;;;10.93;100.00
35224;BME280;21367;51.930;8.112;2024-02-15T01:38:00;99877.84;;;10.93;100.00
35224;BME280;21367;51.930;8.112;2024-02-15T01:43:04;99876.97;;;10.91;100.00
35224;BME280;21367;51.930;8.112;2024-02-15T01:48:10;99871.09;;;10.97;100.00
35224;BME280;21367;51.930;8.112;2024-02-15T01:53:16;99868.41;;;10.92;100.00
35224;BME280;21367;51.930;8.112;2024-02-15T01:58:20;99873.53;;;10.91;100.00
35224;BME280;21367;51.930;8.112;2024-02-15T02:03:27;99864.53;;;11.08;100.00
35224;BME280;21367;51.930;8.112;2024-02-15T02:08:31;99877.22;;;11.00;100.00
35224;BME280;21367;51.930;8.112;2024-02-15T02:13:34;99877.22;;;11.02;100.00
35224;BME280;21367;51.930;8.112;2024-02-15T02:18:42;99885.72;;;10.99;100.00
35224;BME280;21367;51.930;8.112;2024-02-15T02:23:55;99889.13;;;10.98;100.00
35224;BME280;21367;51.930;8.112;2024-02-15T02:29:02;99895.53;;;11.13;100.00
35224;BME280;21367;51.930;8.112;2024-02-15T02:34:21;99898.66;;;11.02;100.00
35224;BME280;21367;51.930;8.112;2024-02-15T02:39:25;99916.66;;;11.01;100.00
35224;BME280;21367;51.930;8.112;2024-02-15T02:44:35;99924.38;;;11.02;100.00
35224;BME280;21367;51.930;8.112;2024-02-15T02:49:51;99926.34;;;11.11;100.00
35224;BME280;21367;51.930;8.112;2024-02-15T02:54:55;99946.63;;;11.00;100.00
35224;BME280;21367;51.930;8.112;2024-02-15T03:00:10;99944.94;;;11.01;100.00
35224;BME280;21367;51.930;8.112;2024-02-15T03:05:20;99941.94;;;11.17;100.00
35224;BME280;21367;51.930;8.112;2024-02-15T03:10:26;99966.56;;;11.09;100.00
35224;BME280;21367;51.930;8.112;2024-02-15T03:15:32;99962.53;;;11.19;100.00
35224;BME280;21367;51.930;8.112;2024-02-15T03:20:44;99980.50;;;11.16;100.00
35224;BME280;21367;51.930;8.112;2024-02-15T03:25:49;100006.66;;;11.02;100.00
35224;BME280;21367;51.930;8.112;2024-02-15T03:30:58;99993.88;;;11.04;100.00
35224;BME280;21367;51.930;8.112;2024-02-15T03:36:06;99986.34;;;11.11;100.00
35224;BME280;21367;51.930;8.112;2024-02-15T03:41:26;99997.50;;;11.12;100.00
35224;BME280;21367;51.930;8.112;2024-02-15T03:46:36;99994.06;;;11.11;100.00
35224;BME280;21367;51.930;8.112;2024-02-15T03:51:40;99996.63;;;11.11;100.00
35224;BME280;21367;51.930;8.112;2024-02-15T03:56:57;100012.16;;;11.15;100.00
35224;BME280;21367;51.930;8.112;2024-02-15T04:02:04;100010.44;;;11.15;100.00
35224;BME280;21367;51.930;8.112;2024-02-15T04:07:13;100023.09;;;11.07;100.00
35224;BME280;21367;51.930;8.112;2024-02-15T04:12:17;100010.28;;;11.09;100.00
35224;BME280;21367;51.930;8.112;2024-02-15T04:17:32;100022.16;;;11.04;100.00
35224;BME280;21367;51.930;8.112;2024-02-15T04:22:37;100025.63;;;11.06;100.00
35224;BME280;21367;51.930;8.112;2024-02-15T04:27:44;100025.63;;;11.06;100.00
35224;BME280;21367;51.930;8.112;2024-02-15T04:32:51;100039.41;;;11.08;100.00
35224;BME280;21367;51.930;8.112;2024-02-15T04:38:04;100042.75;;;11.05;100.00
35224;BME280;21367;51.930;8.112;2024-02-15T04:43:17;100049.69;;;11.08;100.00
35224;BME280;21367;51.930;8.112;2024-02-15T04:48:26;100069.25;;;11.03;100.00
35224;BME280;21367;51.930;8.112;2024-02-15T04:53:31;100072.91;;;11.09;100.00
35224;BME280;21367;51.930;8.112;2024-02-15T04:58:35;100090.66;;;11.02;100.00
35224;BME280;21367;51.930;8.112;2024-02-15T05:03:57;100074.56;;;11.09;100.00
35224;BME280;21367;51.930;8.112;2024-02-15T05:09:10;100093.22;;;11.02;100.00
35224;BME280;21367;51.930;8.112;2024-02-15T05:14:15;100086.16;;;11.23;100.00
35224;BME280;21367;51.930;8.112;2024-02-15T05:19:29;100112.06;;;11.01;100.00
35224;BME280;21367;51.930;8.112;2024-02-15T05:24:33;100126.19;;;11.15;100.00
35224;BME280;21367;51.930;8.112;2024-02-15T05:29:39;100146.34;;;11.28;100.00
35224;BME280;21367;51.930;8.112;2024-02-15T05:34:49;100176.00;;;11.19;100.00
35224;BME280;21367;51.930;8.112;2024-02-15T05:39:55;100203.06;;;11.06;100.00
35224;BME280;21367;51.930;8.112;2024-02-15T05:45:27;100221.25;;;11.12;100.00
35224;BME280;21367;51.930;8.112;2024-02-15T05:50:37;100236.28;;;11.00;100.00
35224;BME280;21367;51.930;8.112;2024-02-15T05:55:42;100245.34;;;11.14;100.00
35224;BME280;21367;51.930;8.112;2024-02-15T06:00:47;100259.06;;;11.15;100.00
35224;BME280;21367;51.930;8.112;2024-02-15T06:05:54;100265.44;;;11.26;100.00
35224;BME280;21367;51.930;8.112;2024-02-15T06:11:00;100289.41;;;10.99;100.00
35224;BME280;21367;51.930;8.112;2024-02-15T06:16:05;100293.63;;;11.23;100.00
35224;BME280;21367;51.930;8.112;2024-02-15T06:21:16;100317.09;;;11.06;100.00
35224;BME280;21367;51.930;8.112;2024-02-15T06:26:27;100310.75;;;10.97;100.00
35224;BME280;21367;51.930;8.112;2024-02-15T06:31:31;100328.56;;;10.91;100.00
35224;BME280;21367;51.930;8.112;2024-02-15T06:36:50;100316.91;;;11.00;100.00
35224;BME280;21367;51.930;8.112;2024-02-15T06:42:06;100314.03;;;11.18;100.00
35224;BME280;21367;51.930;8.112;2024-02-15T06:47:12;100336.97;;;11.12;100.00
35224;BME280;21367;51.930;8.112;2024-02-15T06:52:25;100383.38;;;11.15;100.00
35224;BME280;21367;51.930;8.112;2024-02-15T06:57:29;100388.91;;;11.00;100.00
35224;BME280;21367;51.930;8.112;2024-02-15T07:02:33;100388.53;;;11.15;100.00
35224;BME280;21367;51.930;8.112;2024-02-15T07:07:43;100415.75;;;11.08;100.00
35224;BME280;21367;51.930;8.112;2024-02-15T07:12:47;100426.31;;;10.92;100.00
35224;BME280;21367;51.930;8.112;2024-02-15T07:17:51;100426.03;;;11.08;100.00
35224;BME280;21367;51.930;8.112;2024-02-15T07:22:58;100455.25;;;11.10;100.00
35224;BME280;21367;51.930;8.112;2024-02-15T07:28:04;100453.22;;;11.02;100.00
35224;BME280;21367;51.930;8.112;2024-02-15T07:33:13;100451.47;;;11.01;100.00
35224;BME280;21367;51.930;8.112;2024-02-15T07:38:24;100451.47;;;11.01;100.00
35224;BME280;21367;51.930;8.112;2024-02-15T07:43:28;100431.41;;;10.91;100.00
35224;BME280;21367;51.930;8.112;2024-02-15T07:48:32;100401.28;;;11.12;100.00
35224;BME280;21367;51.930;8.112;2024-02-15T07:53:39;100397.47;;;11.01;100.00
35224;BME280;21367;51.930;8.112;2024-02-15T07:58:44;100369.00;;;11.20;100.00
35224;BME280;21367;51.930;8.112;2024-02-15T08:03:53;100363.88;;;11.22;100.00
35224;BME280;21367;51.930;8.112;2024-02-15T08:09:00;100353.81;;;11.28;100.00
35224;BME280;21367;51.930;8.112;2024-02-15T08:14:04;100335.59;;;11.22;100.00
35224;BME280;21367;51.930;8.112;2024-02-15T08:19:13;100323.63;;;11.22;100.00
35224;BME280;21367;51.930;8.112;2024-02-15T08:24:19;100310.25;;;11.32;100.00
35224;BME280;21367;51.930;8.112;2024-02-15T08:29:32;100321.06;;;11.22;100.00
35224;BME280;21367;51.930;8.112;2024-02-15T08:34:35;100346.63;;;11.18;100.00
35224;BME280;21367;51.930;8.112;2024-02-15T08:39:52;100348.47;;;11.47;100.00
35224;BME280;21367;51.930;8.112;2024-02-15T08:45:08;100353.69;;;11.25;100.00
35224;BME280;21367;51.930;8.112;2024-02-15T08:50:20;100347.84;;;11.29;100.00
35224;BME280;21367;51.930;8.112;2024-02-15T08:55:27;100328.97;;;11.28;100.00
35224;BME280;21367;51.930;8.112;2024-02-15T09:00:33;100309.09;;;11.24;100.00
35224;BME280;21367;51.930;8.112;2024-02-15T09:05:45;100308.06;;;11.45;100.00
35224;BME280;21367;51.930;8.112;2024-02-15T09:10:51;100299.59;;;11.49;100.00
35224;BME280;21367;51.930;8.112;2024-02-15T09:15:55;100306.06;;;11.63;100.00
35224;BME280;21367;51.930;8.112;2024-02-15T09:21:05;100325.25;;;11.46;100.00
35224;BME280;21367;51.930;8.112;2024-02-15T09:26:20;100352.88;;;11.51;100.00
35224;BME280;21367;51.930;8.112;2024-02-15T09:31:30;100357.25;;;11.54;100.00
35224;BME280;21367;51.930;8.112;2024-02-15T09:36:36;100363.22;;;11.53;100.00
35224;BME280;21367;51.930;8.112;2024-02-15T09:41:43;100367.03;;;11.39;100.00
35224;BME280;21367;51.930;8.112;2024-02-15T09:46:52;100356.84;;;11.42;100.00
35224;BME280;21367;51.930;8.112;2024-02-15T09:52:00;100344.63;;;11.62;100.00
35224;BME280;21367;51.930;8.112;2024-02-15T09:57:06;100349.09;;;11.67;100.00
35224;BME280;21367;51.930;8.112;2024-02-15T10:02:14;100357.84;;;11.47;100.00
35224;BME280;21367;51.930;8.112;2024-02-15T10:07:19;100351.34;;;11.56;100.00
35224;BME280;21367;51.930;8.112;2024-02-15T10:12:36;100363.06;;;11.48;100.00
35224;BME280;21367;51.930;8.112;2024-02-15T10:17:54;100346.56;;;11.69;100.00
35224;BME280;21367;51.930;8.112;2024-02-15T10:23:09;100369.38;;;11.58;100.00
35224;BME280;21367;51.930;8.112;2024-02-15T10:28:23;100348.53;;;11.77;100.00
35224;BME280;21367;51.930;8.112;2024-02-15T10:33:29;100352.00;;;11.78;100.00
35224;BME280;21367;51.930;8.112;2024-02-15T10:38:36;100361.22;;;11.71;100.00
35224;BME280;21367;51.930;8.112;2024-02-15T10:43:50;100358.50;;;11.92;100.00
35224;BME280;21367;51.930;8.112;2024-02-15T10:49:01;100375.06;;;11.75;100.00
35224;BME280;21367;51.930;8.112;2024-02-15T10:54:07;100369.56;;;11.63;100.00
35224;BME280;21367;51.930;8.112;2024-02-15T10:59:29;100337.75;;;11.62;100.00
35224;BME280;21367;51.930;8.112;2024-02-15T11:04:36;100289.56;;;11.56;100.00
35224;BME280;21367;51.930;8.112;2024-02-15T11:09:40;100246.59;;;11.54;100.00
35224;BME280;21367;51.930;8.112;2024-02-15T11:14:46;100231.75;;;11.47;100.00
35224;BME280;21367;51.930;8.112;2024-02-15T11:19:52;100186.63;;;11.56;100.00
35224;BME280;21367;51.930;8.112;2024-02-15T11:25:08;100175.50;;;11.59;100.00
35224;BME280;21367;51.930;8.112;2024-02-15T11:30:34;100151.66;;;11.65;100.00
35224;BME280;21367;51.930;8.112;2024-02-15T11:36:07;100141.63;;;11.74;100.00
35224;BME280;21367;51.930;8.112;2024-02-15T11:41:20;100130.56;;;11.76;100.00
35224;BME280;21367;51.930;8.112;2024-02-15T11:46:32;100127.31;;;11.84;100.00
35224;BME280;21367;51.930;8.112;2024-02-15T11:51:36;100123.44;;;11.68;100.00
35224;BME280;21367;51.930;8.112;2024-02-15T11:56:53;100111.53;;;11.71;100.00
35224;BME280;21367;51.930;8.112;2024-02-15T12:02:08;100130.66;;;11.81;100.00
35224;BME280;21367;51.930;8.112;2024-02-15T12:07:25;100141.03;;;11.84;100.00
35224;BME280;21367;51.930;8.112;2024-02-15T12:12:50;100150.06;;;11.98;100.00
35224;BME280;21367;51.930;8.112;2024-02-15T12:18:18;100144.84;;;11.97;100.00
35224;BME280;21367;51.930;8.112;2024-02-15T12:23:38;100150.97;;;12.32;100.00
35224;BME280;21367;51.930;8.112;2024-02-15T12:28:42;100210.44;;;12.73;100.00
35224;BME280;21367;51.930;8.112;2024-02-15T12:34:09;100273.28;;;12.78;100.00
35224;BME280;21367;51.930;8.112;2024-02-15T12:39:14;100372.38;;;12.86;100.00
35224;BME280;21367;51.930;8.112;2024-02-15T12:44:24;100422.59;;;12.99;100.00
35224;BME280;21367;51.930;8.112;2024-02-15T12:49:35;100510.66;;;13.11;100.00
35224;BME280;21367;51.930;8.112;2024-02-15T12:54:39;100597.56;;;13.12;100.00
35224;BME280;21367;51.930;8.112;2024-02-15T12:59:43;100634.84;;;13.22;100.00
35224;BME280;21367;51.930;8.112;2024-02-15T13:04:59;100673.34;;;13.16;100.00
35224;BME280;21367;51.930;8.112;2024-02-15T13:10:05;100710.16;;;13.36;100.00
35224;BME280;21367;51.930;8.112;2024-02-15T13:15:14;100738.56;;;13.36;100.00
35224;BME280;21367;51.930;8.112;2024-02-15T13:20:32;100750.78;;;13.41;100.00
35224;BME280;21367;51.930;8.112;2024-02-15T13:25:38;100744.09;;;13.48;100.00
35224;BME280;21367;51.930;8.112;2024-02-15T13:30:51;100747.06;;;13.60;100.00
35224;BME280;21367;51.930;8.112;2024-02-15T13:35:59;100759.91;;;13.87;100.00
35224;BME280;21367;51.930;8.112;2024-02-15T13:41:05;100774.72;;;13.64;100.00
35224;BME280;21367;51.930;8.112;2024-02-15T13:46:13;100771.34;;;13.96;100.00
35224;BME280;21367;51.930;8.112;2024-02-15T13:51:27;100779.75;;;14.19;100.00
35224;BME280;21367;51.930;8.112;2024-02-15T13:56:30;100786.44;;;14.10;100.00
35224;BME280;21367;51.930;8.112;2024-02-15T14:01:35;100796.94;;;14.17;100.00
35224;BME280;21367;51.930;8.112;2024-02-15T14:06:53;100780.41;;;14.11;100.00
35224;BME280;21367;51.930;8.112;2024-02-15T14:11:58;100793.28;;;14.40;100.00
35224;BME280;21367;51.930;8.112;2024-02-15T14:17:05;100780.94;;;14.30;100.00
35224;BME280;21367;51.930;8.112;2024-02-15T14:22:12;100787.78;;;14.28;100.00
35224;BME280;21367;51.930;8.112;2024-02-15T14:27:17;100792.69;;;14.50;100.00
35224;BME280;21367;51.930;8.112;2024-02-15T14:32:31;100795.53;;;14.58;100.00
35224;BME280;21367;51.930;8.112;2024-02-15T14:37:50;100789.13;;;14.15;100.00
35224;BME280;21367;51.930;8.112;2024-02-15T14:42:54;100780.81;;;14.25;100.00
35224;BME280;21367;51.930;8.112;2024-02-15T14:48:19;100773.78;;;13.91;100.00
35224;BME280;21367;51.930;8.112;2024-02-15T14:53:30;100764.34;;;13.92;100.00
35224;BME280;21367;51.930;8.112;2024-02-15T14:58:34;100772.31;;;13.71;100.00
35224;BME280;21367;51.930;8.112;2024-02-15T15:03:41;100768.94;;;14.02;100.00
35224;BME280;21367;51.930;8.112;2024-02-15T15:08:48;100766.56;;;13.79;100.00
35224;BME280;21367;51.930;8.112;2024-02-15T15:14:05;100751.38;;;13.61;100.00
35224;BME280;21367;51.930;8.112;2024-02-15T15:19:08;100749.25;;;13.48;100.00
35224;BME280;21367;51.930;8.112;2024-02-15T15:24:24;100758.19;;;13.59;100.00
35224;BME280;21367;51.930;8.112;2024-02-15T15:29:30;100718.03;;;13.40;100.00
35224;BME280;21367;51.930;8.112;2024-02-15T15:34:34;100711.13;;;13.39;100.00
35224;BME280;21367;51.930;8.112;2024-02-15T15:39:50;100673.16;;;13.35;100.00
35224;BME280;21367;51.930;8.112;2024-02-15T15:44:59;100657.47;;;13.29;100.00
35224;BME280;21367;51.930;8.112;2024-02-15T15:50:03;100660.13;;;13.05;100.00
35224;BME280;21367;51.930;8.112;2024-02-15T15:55:16;100653.66;;;12.91;100.00
35224;BME280;21367;51.930;8.112;2024-02-15T16:00:21;100676.28;;;13.00;100.00
35224;BME280;21367;51.930;8.112;2024-02-15T16:05:33;100675.03;;;12.87;100.00
35224;BME280;21367;51.930;8.112;2024-02-15T16:10:40;100655.97;;;12.56;100.00
35224;BME280;21367;51.930;8.112;2024-02-15T16:15:44;100644.56;;;12.75;100.00
35224;BME280;21367;51.930;8.112;2024-02-15T16:20:48;100637.75;;;12.77;100.00
35224;BME280;21367;51.930;8.112;2024-02-15T16:25:55;100632.06;;;12.60;100.00
35224;BME280;21367;51.930;8.112;2024-02-15T16:30:59;100616.22;;;12.49;100.00
35224;BME280;21367;51.930;8.112;2024-02-15T16:36:07;100596.72;;;12.31;100.00
35224;BME280;21367;51.930;8.112;2024-02-15T16:41:14;100573.22;;;12.21;100.00
35224;BME280;21367;51.930;8.112;2024-02-15T16:46:18;100552.63;;;11.96;100.00
35224;BME280;21367;51.930;8.112;2024-02-15T16:51:26;100547.09;;;12.11;100.00
35224;BME280;21367;51.930;8.112;2024-02-15T16:56:38;100551.44;;;12.12;100.00
35224;BME280;21367;51.930;8.112;2024-02-15T17:01:46;100547.22;;;11.88;100.00
35224;BME280;21367;51.930;8.112;2024-02-15T17:06:53;100505.91;;;11.85;100.00
35224;BME280;21367;51.930;8.112;2024-02-15T17:12:00;100493.78;;;11.82;100.00
35224;BME280;21367;51.930;8.112;2024-02-15T17:17:13;100492.06;;;11.57;100.00
35224;BME280;21367;51.930;8.112;2024-02-15T17:22:27;100483.78;;;11.66;100.00
35224;BME280;21367;51.930;8.112;2024-02-15T17:27:43;100468.78;;;11.54;100.00
35224;BME280;21367;51.930;8.112;2024-02-15T17:32:47;100452.31;;;11.49;100.00
35224;BME280;21367;51.930;8.112;2024-02-15T17:37:52;100436.34;;;11.34;100.00
35224;BME280;21367;51.930;8.112;2024-02-15T17:42:58;100416.03;;;11.42;100.00
35224;BME280;21367;51.930;8.112;2024-02-15T17:48:06;100406.50;;;11.39;100.00
35224;BME280;21367;51.930;8.112;2024-02-15T17:53:13;100405.75;;;11.42;100.00
35224;BME280;21367;51.930;8.112;2024-02-15T17:58:24;100408.47;;;11.46;100.00
35224;BME280;21367;51.930;8.112;2024-02-15T18:03:37;100407.50;;;11.19;100.00
35224;BME280;21367;51.930;8.112;2024-02-15T18:08:43;100411.22;;;11.52;100.00
35224;BME280;21367;51.930;8.112;2024-02-15T18:13:50;100445.41;;;11.48;100.00
35224;BME280;21367;51.930;8.112;2024-02-15T18:18:57;100435.53;;;11.35;100.00
35224;BME280;21367;51.930;8.112;2024-02-15T18:24:06;100436.84;;;11.24;100.00
35224;BME280;21367;51.930;8.112;2024-02-15T18:29:15;100442.00;;;11.24;100.00
35224;BME280;21367;51.930;8.112;2024-02-15T18:34:19;100438.22;;;11.38;100.00
35224;BME280;21367;51.930;8.112;2024-02-15T18:39:23;100429.91;;;11.21;100.00
35224;BME280;21367;51.930;8.112;2024-02-15T18:44:33;100411.09;;;10.98;100.00
35224;BME280;21367;51.930;8.112;2024-02-15T18:49:43;100389.22;;;11.09;100.00
35224;BME280;21367;51.930;8.112;2024-02-15T18:54:49;100380.91;;;10.93;100.00
35224;BME280;21367;51.930;8.112;2024-02-15T19:00:00;100363.88;;;10.96;100.00
35224;BME280;21367;51.930;8.112;2024-02-15T19:05:05;100369.84;;;10.95;100.00
35224;BME280;21367;51.930;8.112;2024-02-15T19:10:21;100372.75;;;11.04;100.00
35224;BME280;21367;51.930;8.112;2024-02-15T19:15:28;100357.41;;;11.07;100.00
35224;BME280;21367;51.930;8.112;2024-02-15T19:20:33;100356.13;;;10.95;100.00
35224;BME280;21367;51.930;8.112;2024-02-15T19:25:37;100355.28;;;10.96;100.00
35224;BME280;21367;51.930;8.112;2024-02-15T19:30:43;100362.13;;;10.95;100.00
35224;BME280;21367;51.930;8.112;2024-02-15T19:35:49;100361.38;;;10.98;100.00
35224;BME280;21367;51.930;8.112;2024-02-15T19:40:54;100353.69;;;10.99;100.00
35224;BME280;21367;51.930;8.112;2024-02-15T19:46:05;100340.63;;;10.93;100.00
35224;BME280;21367;51.930;8.112;2024-02-15T19:51:09;100332.56;;;10.82;100.00
35224;BME280;21367;51.930;8.112;2024-02-15T19:56:16;100328.13;;;10.78;100.00
35224;BME280;21367;51.930;8.112;2024-02-15T20:01:22;100323.16;;;10.59;100.00
35224;BME280;21367;51.930;8.112;2024-02-15T20:06:28;100276.66;;;10.77;100.00
35224;BME280;21367;51.930;8.112;2024-02-15T20:11:35;100289.38;;;10.72;100.00
35224;BME280;21367;51.930;8.112;2024-02-15T20:16:49;100264.34;;;10.68;100.00
35224;BME280;21367;51.930;8.112;2024-02-15T20:21:57;100270.22;;;10.64;100.00
35224;BME280;21367;51.930;8.112;2024-02-15T20:27:00;100253.38;;;10.72;100.00
35224;BME280;21367;51.930;8.112;2024-02-15T20:32:18;100250.22;;;10.81;100.00
35224;BME280;21367;51.930;8.112;2024-02-15T20:37:23;100254.50;;;10.55;100.00
35224;BME280;21367;51.930;8.112;2024-02-15T20:42:27;100224.53;;;10.55;100.00
35224;BME280;21367;51.930;8.112;2024-02-15T20:47:45;100210.91;;;10.58;100.00
35224;BME280;21367;51.930;8.112;2024-02-15T20:52:50;100219.28;;;10.52;100.00
35224;BME280;21367;51.930;8.112;2024-02-15T20:57:59;100217.00;;;10.36;100.00
35224;BME280;21367;51.930;8.112;2024-02-15T21:03:07;100217.66;;;10.30;100.00
35224;BME280;21367;51.930;8.112;2024-02-15T21:08:11;100208.38;;;10.34;100.00
35224;BME280;21367;51.930;8.112;2024-02-15T21:13:19;100207.22;;;10.26;100.00
35224;BME280;21367;51.930;8.112;2024-02-15T21:18:35;100202.94;;;10.02;100.00
35224;BME280;21367;51.930;8.112;2024-02-15T21:23:39;100192.72;;;9.80;100.00
35224;BME280;21367;51.930;8.112;2024-02-15T21:28:45;100181.00;;;9.64;100.00
35224;BME280;21367;51.930;8.112;2024-02-15T21:33:51;100136.28;;;10.05;100.00
35224;BME280;21367;51.930;8.112;2024-02-15T21:38:59;100163.22;;;9.92;100.00
35224;BME280;21367;51.930;8.112;2024-02-15T21:44:03;100160.91;;;9.75;100.00
35224;BME280;21367;51.930;8.112;2024-02-15T21:49:13;100133.88;;;9.84;100.00
35224;BME280;21367;51.930;8.112;2024-02-15T21:54:17;100126.75;;;9.53;100.00
35224;BME280;21367;51.930;8.112;2024-02-15T21:59:35;100110.16;;;9.43;100.00
35224;BME280;21367;51.930;8.112;2024-02-15T22:04:46;100099.78;;;9.64;100.00
35224;BME280;21367;51.930;8.112;2024-02-15T22:09:49;100097.03;;;9.36;100.00
35224;BME280;21367;51.930;8.112;2024-02-15T22:14:54;100064.66;;;9.39;100.00
35224;BME280;21367;51.930;8.112;2024-02-15T22:20:06;100029.69;;;9.17;100.00
35224;BME280;21367;51.930;8.112;2024-02-15T22:25:15;100002.91;;;9.33;100.00
35224;BME280;21367;51.930;8.112;2024-02-15T22:30:18;100002.78;;;9.30;100.00
35224;BME280;21367;51.930;8.112;2024-02-15T22:35:27;100019.50;;;9.19;100.00
35224;BME280;21367;51.930;8.112;2024-02-15T22:40:31;100029.00;;;8.99;100.00
35224;BME280;21367;51.930;8.112;2024-02-15T22:45:39;100010.78;;;9.38;100.00
35224;BME280;21367;51.930;8.112;2024-02-15T22:50:46;100042.81;;;9.25;100.00
35224;BME280;21367;51.930;8.112;2024-02-15T22:55:56;100076.06;;;9.23;100.00
35224;BME280;21367;51.930;8.112;2024-02-15T23:01:00;100110.44;;;9.29;100.00
35224;BME280;21367;51.930;8.112;2024-02-15T23:06:08;100126.59;;;9.26;100.00
35224;BME280;21367;51.930;8.112;2024-02-15T23:11:12;100131.25;;;9.36;100.00
35224;BME280;21367;51.930;8.112;2024-02-15T23:16:18;100157.00;;;9.17;100.00
35224;BME280;21367;51.930;8.112;2024-02-15T23:21:26;100177.63;;;9.20;100.00
35224;BME280;21367;51.930;8.112;2024-02-15T23:26:30;100165.00;;;9.24;100.00
35224;BME280;21367;51.930;8.112;2024-02-15T23:31:36;100180.47;;;9.05;100.00
35224;BME280;21367;51.930;8.112;2024-02-15T23:36:44;100180.19;;;9.20;100.00
35224;BME280;21367;51.930;8.112;2024-02-15T23:42:00;100150.66;;;9.07;100.00
35224;BME280;21367;51.930;8.112;2024-02-15T23:47:09;100156.50;;;9.25;100.00
35224;BME280;21367;51.930;8.112;2024-02-15T23:52:19;100166.69;;;9.46;100.00
35224;BME280;21367;51.930;8.112;2024-02-15T23:57:24;100175.41;;;9.07;100.00
